createdAt,value
2018-07-14T00:06:21.258Z,97.80
2018-07-14T00:16:25.374Z,97.70
2018-07-14T00:26:28.410Z,97.70
2018-07-14T00:36:31.487Z,98.40
2018-07-14T00:46:34.774Z,98.90
2018-07-14T00:56:37.898Z,99.40
2018-07-14T01:06:40.935Z,99.90
2018-07-14T01:16:43.982Z,99.90
2018-07-14T01:26:47.020Z,99.90
2018-07-14T01:36:50.145Z,99.90
2018-07-14T01:46:53.204Z,99.90
2018-07-14T01:56:56.354Z,99.90
2018-07-14T02:07:03.740Z,99.90
2018-07-14T02:17:06.787Z,99.90
2018-07-14T02:27:09.911Z,99.90
2018-07-14T02:37:14.047Z,99.90
2018-07-14T02:47:17.733Z,99.90
2018-07-14T02:57:20.849Z,99.90
2018-07-14T03:07:24.044Z,99.90
2018-07-14T03:17:28.830Z,99.90
2018-07-14T03:27:32.756Z,99.90
2018-07-14T03:37:35.840Z,99.90
2018-07-14T03:47:38.868Z,99.90
2018-07-14T03:57:42.021Z,99.90
2018-07-14T04:07:45.092Z,99.90
2018-07-14T04:17:52.397Z,99.90
2018-07-14T04:27:55.422Z,99.90
2018-07-14T04:37:59.075Z,99.90
2018-07-14T04:48:02.304Z,99.90
2018-07-14T04:58:05.355Z,99.90
2018-07-14T05:08:09.420Z,99.90
2018-07-14T05:18:12.806Z,99.90
2018-07-14T05:28:16.630Z,99.90
2018-07-14T05:38:19.756Z,99.90
2018-07-14T05:48:22.800Z,99.90
2018-07-14T05:58:25.831Z,99.90
2018-07-14T06:18:31.822Z,99.90
2018-07-14T06:28:36.836Z,99.90
2018-07-14T06:38:40.214Z,99.90
2018-07-14T06:48:43.253Z,99.90
2018-07-14T06:58:46.290Z,99.90
2018-07-14T07:08:49.480Z,99.90
2018-07-14T07:18:52.538Z,99.90
2018-07-14T07:28:55.830Z,99.90
2018-07-14T07:38:59.000Z,99.90
2018-07-14T07:49:02.028Z,99.90
2018-07-14T07:59:05.201Z,99.90
2018-07-14T08:09:08.668Z,99.90
2018-07-14T08:19:11.698Z,99.90
2018-07-14T08:29:14.735Z,99.90
2018-07-14T08:39:17.819Z,99.90
2018-07-14T08:49:20.865Z,99.90
2018-07-14T08:59:23.913Z,98.80
2018-07-14T09:09:26.936Z,99.90
2018-07-14T09:19:29.990Z,98.20
2018-07-14T09:29:32.998Z,98.60
2018-07-14T09:39:36.017Z,97.60
2018-07-14T09:49:39.024Z,96.50
2018-07-14T09:59:42.061Z,93.40
2018-07-14T10:09:45.061Z,94.60
2018-07-14T10:19:48.116Z,93.60
2018-07-14T10:29:51.157Z,90.80
2018-07-14T10:39:54.258Z,91.60
2018-07-14T10:49:57.317Z,91.10
2018-07-14T11:00:00.620Z,91.30
2018-07-14T11:10:03.781Z,88.60
2018-07-14T11:30:10.326Z,88.40
2018-07-14T11:40:13.369Z,87.30
2018-07-14T11:50:16.714Z,84.80
2018-07-14T12:00:19.789Z,82.80
2018-07-14T12:10:22.909Z,80.50
2018-07-14T12:20:25.989Z,80.60
2018-07-14T12:30:29.024Z,74.10
2018-07-14T12:40:32.522Z,76.00
2018-07-14T12:50:35.563Z,78.80
2018-07-14T13:00:38.683Z,72.10
2018-07-14T13:20:44.775Z,73.60
2018-07-14T13:30:47.797Z,72.60
2018-07-14T13:40:50.848Z,70.40
2018-07-14T14:00:56.691Z,73.30
2018-07-14T14:10:59.744Z,75.10
2018-07-14T14:21:02.800Z,72.00
2018-07-14T14:31:05.997Z,74.50
2018-07-14T14:41:09.030Z,74.60
2018-07-14T14:51:12.099Z,70.70
2018-07-14T15:01:21.226Z,69.60
2018-07-14T15:11:24.342Z,70.40
2018-07-14T15:21:27.522Z,70.90
2018-07-14T15:31:30.529Z,73.70
2018-07-14T15:41:33.657Z,72.30
2018-07-14T15:51:36.646Z,72.80
2018-07-14T16:01:39.689Z,69.80
2018-07-14T16:11:42.771Z,71.80
2018-07-14T16:21:45.876Z,69.60
2018-07-14T16:31:49.051Z,73.70
2018-07-14T16:41:52.068Z,70.20
2018-07-14T16:51:55.127Z,71.80
2018-07-14T17:01:58.247Z,73.30
2018-07-14T17:12:01.406Z,74.30
2018-07-14T17:22:04.506Z,77.00
2018-07-14T17:32:07.621Z,78.80
2018-07-14T17:42:10.654Z,77.60
2018-07-14T17:52:13.744Z,81.00
2018-07-14T18:12:19.601Z,84.30
2018-07-14T18:22:22.637Z,85.60
2018-07-14T18:32:25.723Z,86.20
2018-07-14T18:42:29.798Z,86.10
2018-07-14T18:52:33.865Z,87.70
2018-07-14T19:02:36.881Z,88.60
2018-07-14T19:12:41.896Z,89.20
2018-07-14T19:22:44.948Z,90.00
2018-07-14T19:32:58.541Z,90.20
2018-07-14T19:43:01.553Z,90.80
2018-07-14T19:53:04.597Z,90.90
2018-07-14T20:03:08.513Z,90.60
2018-07-14T20:13:11.854Z,90.90
2018-07-14T20:23:15.188Z,91.20
2018-07-14T20:33:20.368Z,91.40
2018-07-14T20:43:35.336Z,91.70
2018-07-14T20:53:38.654Z,92.20
2018-07-14T21:03:41.901Z,92.30
2018-07-14T21:13:47.187Z,91.40
2018-07-14T21:23:50.264Z,91.50
2018-07-14T21:44:30.683Z,90.90
2018-07-14T21:54:33.731Z,90.80
2018-07-14T22:04:36.874Z,90.90
2018-07-14T22:14:39.926Z,90.80
2018-07-14T22:24:42.959Z,90.80
2018-07-14T22:34:45.998Z,90.90
2018-07-14T22:44:49.071Z,91.00
2018-07-14T22:54:52.125Z,91.30
2018-07-14T23:04:55.167Z,91.40
2018-07-14T23:14:58.217Z,91.60
2018-07-14T23:25:05.817Z,91.60
2018-07-14T23:35:08.857Z,91.70
2018-07-14T23:45:11.940Z,91.60
2018-07-14T23:55:14.972Z,91.70
